createdAt,value
2019-06-20T00:09:10.725Z,18.90
2019-06-20T00:36:42.781Z,19.10
2019-06-20T00:56:49.109Z,19.80
2019-06-20T02:53:59.968Z,20.00
2019-06-20T02:58:59.107Z,20.10
2019-06-20T03:01:28.344Z,20.30
2019-06-20T03:03:57.524Z,20.20
2019-06-20T03:06:28.908Z,19.80
2019-06-20T03:08:58.096Z,20.10
2019-06-20T03:11:27.479Z,20.10
2019-06-20T03:13:56.659Z,19.90
2019-06-20T03:18:58.701Z,19.80
2019-06-20T03:21:27.912Z,20.10
2019-06-20T03:23:57.091Z,20.20
2019-06-20T03:26:26.312Z,20.20
2019-06-20T03:31:24.853Z,20.40
2019-06-20T03:33:54.058Z,20.40
2019-06-20T03:41:26.598Z,20.10
2019-06-20T03:49:01.039Z,20.30
2019-06-20T04:04:05.142Z,20.30
2019-06-20T04:09:07.587Z,20.60
2019-06-20T04:11:39.153Z,20.40
2019-06-20T04:19:10.059Z,20.60
2019-06-20T04:21:39.240Z,20.80
2019-06-20T04:24:08.547Z,20.80
2019-06-20T04:26:37.735Z,20.70
2019-06-20T04:29:06.946Z,20.70
2019-06-20T04:31:36.132Z,20.70
2019-06-20T04:34:05.351Z,20.70
2019-06-20T04:36:34.547Z,20.80
2019-06-20T04:39:18.694Z,21.00
2019-06-20T04:41:36.992Z,20.90
2019-06-20T04:44:06.284Z,20.90
2019-06-20T04:46:35.477Z,21.00
2019-06-20T04:49:04.753Z,21.00
2019-06-20T04:51:34.009Z,21.00
2019-06-20T04:54:03.463Z,21.20
2019-06-20T04:56:32.640Z,21.10
2019-06-20T04:59:01.917Z,21.00
2019-06-20T05:01:31.112Z,21.10
2019-06-20T05:04:00.320Z,21.30
2019-06-20T05:06:29.509Z,21.30
2019-06-20T05:08:58.742Z,21.10
2019-06-20T05:11:27.935Z,21.30
2019-06-20T05:13:57.183Z,21.40
2019-06-20T05:16:26.366Z,21.40
2019-06-20T05:18:55.570Z,21.40
2019-06-20T05:21:24.752Z,21.50
2019-06-20T05:23:54.024Z,21.20
2019-06-20T05:26:23.223Z,21.40
2019-06-20T05:28:53.200Z,21.50
2019-06-20T05:31:22.694Z,21.30
2019-06-20T05:33:53.157Z,21.40
2019-06-20T05:36:22.449Z,21.50
2019-06-20T05:38:51.739Z,21.50
2019-06-20T05:41:20.972Z,21.30
2019-06-20T05:43:56.557Z,21.80
2019-06-20T05:46:25.814Z,21.40
2019-06-20T05:48:55.016Z,22.10
2019-06-20T05:51:24.237Z,22.40
2019-06-20T05:53:54.180Z,23.00
2019-06-20T05:56:23.471Z,22.60
2019-06-20T06:23:50.536Z,26.70
2019-06-20T06:26:19.748Z,26.50
2019-06-20T06:28:48.953Z,27.30
2019-06-20T06:31:18.160Z,29.00
2019-06-20T06:33:47.609Z,30.10
2019-06-20T06:36:17.664Z,30.00
2019-06-20T06:38:46.936Z,30.90
2019-06-20T06:41:16.360Z,32.00
2019-06-20T06:43:45.713Z,31.90
